Time;durP1;ratioP1;P1;durP2;ratioP2;P2;SDS_P1;SDS_P2;PMS_P1;PMS_P2;Temp;Humidity;BMP_temperature;BMP_pressure;BME280_temperature;BME280_humidity;BME280_pressure;Samples;Min_cycle;Max_cycle;Signal;HPM_P1;HPM_P2
2022/06/09 00:03:37;;;;;;;1.00;0.80;;;17.70;91.70;;;18.25;57.90;98116.91;4876840;29;119932;-91
2022/06/09 00:06:09;;;;;;;0.90;0.70;;;17.70;91.70;;;18.27;57.96;98111.75;4869091;29;118609;-90
2022/06/09 00:09:32;;;;;;;2.20;0.70;;;17.70;91.70;;;18.29;57.86;98120.53;4871177;29;123883;-90
2022/06/09 00:16:01;;;;;;;0.90;0.80;;;17.70;91.60;;;18.26;57.82;98124.09;4844318;29;119972;-90
2022/06/09 00:18:28;;;;;;;1.47;0.90;;;17.70;91.60;;;18.25;57.92;98123.31;4848025;29;118632;-90
2022/06/09 00:20:54;;;;;;;0.90;0.77;;;17.70;91.60;;;18.25;57.82;98128.91;4851721;29;123743;-89
2022/06/09 00:23:21;;;;;;;1.03;0.93;;;17.70;91.60;;;18.28;57.80;98141.31;4860440;28;123917;-89
2022/06/09 00:29:49;;;;;;;1.00;0.90;;;17.70;91.50;;;18.20;57.80;98145.19;4865850;29;119406;-92
2022/06/09 00:32:16;;;;;;;1.00;0.80;;;17.70;91.50;;;18.16;57.90;98139.56;4858046;29;123556;-90
2022/06/09 00:35:02;;;;;;;0.90;0.80;;;17.70;91.50;;;18.13;57.92;98147.91;4857563;29;121979;-90
2022/06/09 00:41:11;;;;;;;1.10;0.93;;;17.60;91.50;;;17.98;58.17;98156.09;4861579;29;120466;-90
2022/06/09 00:43:44;;;;;;;1.77;0.97;;;17.50;91.60;;;17.95;58.29;98161.63;4859201;29;123225;-90
2022/06/09 00:46:54;;;;;;;1.40;0.97;;;17.50;91.60;;;17.88;58.43;98151.94;4856652;29;123565;-89
2022/06/09 00:53:09;;;;;;;0.90;0.80;;;17.40;91.70;;;17.79;58.43;98159.00;4840789;29;119518;-91
2022/06/09 00:55:36;;;;;;;1.00;0.90;;;17.40;91.80;;;17.75;58.77;98155.31;4853591;29;123893;-91
2022/06/09 00:58:42;;;;;;;1.43;0.80;;;17.30;91.80;;;17.72;59.01;98150.47;4857167;29;123593;-90
2022/06/09 01:01:14;;;;;;;1.10;0.90;;;17.40;91.90;;;17.74;59.03;98153.72;4857120;29;120012;-89
2022/06/09 01:07:34;;;;;;;0.90;0.80;;;17.30;92.00;;;17.74;59.30;98159.31;4862950;29;125250;-90
2022/06/09 01:10:00;;;;;;;0.90;0.80;;;17.30;92.10;;;17.70;59.62;98158.41;4870122;28;124482;-89
2022/06/09 01:17:00;;;;;;;0.90;0.80;;;17.20;92.40;;;17.48;60.03;98160.06;4890542;28;120046;-90
2022/06/09 01:23:28;;;;;;;0.80;0.70;;;17.10;92.50;;;17.35;60.13;98156.66;4803506;29;124163;-89
2022/06/09 01:30:15;;;;;;;0.80;0.70;;;17.00;92.50;;;17.28;60.47;98159.34;4807264;29;119884;-89
2022/06/09 01:33:40;;;;;;;0.93;0.80;;;16.90;92.60;;;17.23;60.52;98161.28;4802675;29;124715;-90
2022/06/09 01:39:55;;;;;;;0.90;0.70;;;16.90;92.70;;;17.15;60.54;98158.72;4806462;29;122645;-90
2022/06/09 01:46:31;;;;;;;1.17;0.70;;;16.80;92.80;;;17.12;60.80;98170.66;4788008;29;124967;-85
2022/06/09 01:52:42;;;;;;;1.00;0.80;;;16.70;92.90;;;17.11;61.11;98172.59;4882510;28;120478;-89
2022/06/09 01:58:58;;;;;;;3.83;1.00;;;16.70;93.10;;;17.12;60.94;98177.03;4899845;28;124534;-90
2022/06/09 02:05:27;;;;;;;2.23;1.00;;;16.70;93.20;;;17.10;61.22;98179.38;4900125;28;120393;-91
2022/06/09 02:15:44;;;;;;;0.80;0.70;;;16.70;93.30;;;17.09;61.27;98169.41;4900276;28;124874;-89
2022/06/09 02:21:53;;;;;;;1.00;0.90;;;16.70;93.40;;;17.14;61.24;98179.44;4900358;28;120037;-90
2022/06/09 02:28:01;;;;;;;1.20;1.10;;;16.70;93.40;;;17.16;60.92;98172.31;4899598;28;124885;-91
2022/06/09 02:34:13;;;;;;;1.03;0.93;;;16.70;93.30;;;17.17;61.12;98179.50;4899531;28;119231;-90
2022/06/09 02:40:21;;;;;;;0.90;0.83;;;16.70;93.20;;;17.14;60.98;98191.44;4898850;28;124730;-89
2022/06/09 02:46:31;;;;;;;2.17;1.00;;;16.60;93.20;;;17.06;60.92;98188.84;4880913;29;120982;-90
2022/06/09 02:49:36;;;;;;;1.40;1.00;;;16.60;93.20;;;17.04;61.07;98180.88;4865615;28;124868;-91
2022/06/09 02:55:45;;;;;;;1.90;1.00;;;16.60;93.30;;;17.08;61.09;98192.09;4899785;28;120407;-90
2022/06/09 03:01:53;;;;;;;1.47;1.00;;;16.60;93.30;;;17.06;61.04;98198.06;4900089;28;125005;-91
2022/06/09 03:08:05;;;;;;;1.40;1.00;;;16.60;93.30;;;17.03;60.96;98206.34;4899482;28;120447;-90
2022/06/09 03:10:34;;;;;;;1.33;1.00;;;16.60;93.30;;;17.02;60.92;98210.31;4863781;28;117790;-89
2022/06/09 03:16:42;;;;;;;1.17;0.90;;;16.50;93.20;;;16.98;61.02;98211.06;4899011;28;125115;-89
2022/06/09 03:19:11;;;;;;;1.03;0.93;;;16.50;93.30;;;16.99;60.94;98212.66;4865995;28;117155;-90
2022/06/09 03:25:23;;;;;;;1.27;1.00;;;16.50;93.30;;;16.94;61.05;98215.75;4983974;23;124558;-89
2022/06/09 03:28:10;;;;;;;1.70;1.10;;;16.50;93.40;;;16.96;61.26;98218.19;4903261;28;123267;-92
2022/06/09 03:34:21;;;;;;;1.40;0.93;;;16.50;93.40;;;16.99;61.16;98225.81;4898012;28;120037;-91
2022/06/09 03:40:30;;;;;;;4.20;1.40;;;16.50;93.40;;;17.03;61.04;98217.50;4897027;28;124732;-91
2022/06/09 03:43:56;;;;;;;1.40;1.00;;;16.50;93.50;;;17.04;61.05;98231.09;4907445;28;120405;-90
2022/06/09 03:50:08;;;;;;;1.80;1.07;;;16.50;93.50;;;16.92;61.58;98234.03;4915977;28;125188;-90
2022/06/09 03:56:20;;;;;;;1.60;1.20;;;16.50;93.60;;;16.78;62.04;98240.16;4901146;28;120491;-90
2022/06/09 04:02:48;;;;;;;1.77;1.30;;;16.30;93.70;;;16.66;62.39;98246.66;4900556;28;125238;-91
2022/06/09 04:06:11;;;;;;;4.67;1.30;;;16.30;93.90;;;16.61;62.54;98262.88;4884575;28;124486;-91
2022/06/09 04:12:19;;;;;;;2.07;1.20;;;16.20;94.10;;;16.48;63.02;98270.56;4901523;28;119434;-90
2022/06/09 04:18:27;;;;;;;1.50;1.10;;;16.10;94.10;;;16.49;62.74;98263.81;4900540;28;124147;-91
2022/06/09 04:20:54;;;;;;;2.97;1.80;;;16.10;94.10;;;16.50;62.74;98268.22;4900140;28;120087;-92
2022/06/09 04:24:05;;;;;;;1.90;1.30;;;16.10;94.20;;;16.45;62.61;98271.31;4883886;28;118925;-91
2022/06/09 04:30:15;;;;;;;2.00;1.37;;;16.00;94.30;;;16.39;63.00;98269.94;4881723;29;124202;-91
2022/06/09 04:33:02;;;;;;;1.87;1.43;;;16.00;94.30;;;16.39;63.00;98275.53;4863783;29;119317;-90
2022/06/09 04:36:09;;;;;;;2.57;1.43;;;16.00;94.30;;;16.40;62.86;98285.53;4877844;29;118519;-90
2022/06/09 04:42:38;;;;;;;1.77;1.17;;;16.00;94.30;;;16.35;63.04;98295.78;4860819;29;124783;-90
2022/06/09 04:49:25;;;;;;;2.23;1.40;;;16.00;94.40;;;16.32;63.23;98304.88;4878522;29;120951;-90
2022/06/09 04:51:52;;;;;;;4.00;1.30;;;16.00;94.50;;;16.32;63.32;98306.84;4875334;29;124031;-90
2022/06/09 04:54:21;;;;;;;2.23;1.30;;;15.90;94.50;;;16.32;63.24;98301.28;4874166;29;123584;-91
2022/06/09 04:56:50;;;;;;;2.00;1.17;;;15.90;94.50;;;16.33;63.20;98302.88;4876222;29;119077;-90
2022/06/09 04:59:37;;;;;;;4.00;1.60;;;15.90;94.50;;;16.31;63.49;98314.41;4892242;28;118982;-89
2022/06/09 05:03:01;;;;;;;2.53;1.47;;;15.90;94.60;;;16.27;63.39;98319.09;4883361;28;123885;-90
2022/06/09 05:05:35;;;;;;;1.90;1.30;;;15.90;94.50;;;16.25;62.96;98324.22;4856862;29;123709;-89
2022/06/09 05:08:02;;;;;;;1.20;1.10;;;15.90;94.50;;;16.27;63.19;98319.09;4874302;29;120171;-90
2022/06/09 05:10:30;;;;;;;2.33;1.33;;;15.90;94.50;;;16.29;63.20;98318.75;4875701;29;118825;-91
2022/06/09 05:13:16;;;;;;;2.07;1.17;;;15.90;94.50;;;16.34;63.01;98330.41;4877347;28;124631;-89
2022/06/09 05:16:02;;;;;;;1.77;1.17;;;15.90;94.40;;;16.35;63.01;98340.38;4890304;28;123826;-89
2022/06/09 05:18:32;;;;;;;3.77;1.80;;;15.90;94.40;;;16.37;62.81;98342.03;4856806;29;120056;-88
2022/06/09 05:21:01;;;;;;;2.03;1.33;;;15.90;94.30;;;16.39;62.53;98334.91;4863788;29;118424;-90
2022/06/09 05:31:13;;;;;;;5.37;2.63;;;16.00;94.10;;;16.42;62.20;98339.75;4861892;29;119952;-89
2022/06/09 05:34:03;;;;;;;3.00;1.80;;;15.90;94.00;;;16.47;62.20;98341.44;4850499;29;116533;-90
2022/06/09 05:36:50;;;;;;;4.40;1.50;;;16.00;94.00;;;16.52;61.77;98343.94;4834922;29;125368;-88
2022/06/09 05:46:04;;;;;;;5.13;1.50;;;16.10;93.80;;;16.77;61.28;98350.94;4850383;29;121342;-90
2022/06/09 05:48:30;;;;;;;2.20;1.10;;;16.30;93.80;;;16.85;61.13;98351.91;4844216;29;123590;-90
2022/06/09 05:50:59;;;;;;;3.70;1.30;;;16.30;93.70;;;16.92;60.80;98368.00;4850865;29;124185;-91
2022/06/09 05:53:26;;;;;;;3.93;1.50;;;16.40;93.50;;;16.98;60.43;98352.59;4843598;29;118733;-92
2022/06/09 05:56:12;;;;;;;3.13;1.30;;;16.40;93.40;;;17.07;60.13;98361.56;4853455;29;118706;-91
2022/06/09 05:58:39;;;;;;;2.80;1.50;;;16.60;93.30;;;17.11;60.03;98359.63;4828409;29;123444;-92
2022/06/09 06:01:24;;;;;;;3.03;1.40;;;16.60;93.10;;;17.18;60.00;98365.38;4839045;29;124199;-90
2022/06/09 06:03:51;;;;;;;1.53;1.30;;;16.70;93.10;;;17.29;59.96;98378.75;4835225;29;120076;-90
2022/06/09 06:06:35;;;;;;;4.53;1.23;;;16.80;93.10;;;17.36;59.56;98379.72;4846505;29;116715;-92
2022/06/09 06:09:09;;;;;;;2.60;1.23;;;16.80;92.90;;;17.42;59.29;98375.44;4833538;29;123060;-91
2022/06/09 06:15:20;;;;;;;3.30;1.63;;;17.00;92.60;;;17.51;59.04;98378.00;4837601;29;119948;-92
2022/06/09 06:17:46;;;;;;;3.10;1.27;;;17.00;92.60;;;17.60;58.89;98389.75;4827079;29;117986;-91
2022/06/09 06:23:55;;;;;;;2.30;1.23;;;17.20;92.40;;;17.73;58.37;98382.03;4836755;29;123582;-93
2022/06/09 06:30:06;;;;;;;6.57;1.80;;;17.30;92.10;;;17.84;57.98;98394.25;4854738;29;118923;-92
2022/06/09 06:32:52;;;;;;;1.77;1.13;;;17.40;92.30;;;17.93;57.70;98393.19;4866268;28;124345;-93
2022/06/09 06:35:56;;;;;;;2.00;1.30;;;17.40;91.90;;;18.06;57.58;98391.84;4856165;28;123259;-91
2022/06/09 06:39:21;;;;;;;4.10;1.57;;;17.50;91.80;;;18.08;57.10;98397.84;4851355;29;119818;-93
2022/06/09 06:41:49;;;;;;;3.77;1.80;;;17.60;91.50;;;18.12;57.01;98406.31;4851941;29;118596;-92
2022/06/09 06:48:46;;;;;;;1.87;1.30;;;17.70;91.40;;;18.15;57.12;98411.94;4862515;28;123233;-91
2022/06/09 06:51:13;;;;;;;2.90;1.50;;;17.70;91.40;;;18.27;56.99;98413.78;4868117;28;119047;-92
2022/06/09 06:53:41;;;;;;;3.23;1.10;;;17.80;91.30;;;18.40;56.68;98417.16;4875502;28;118737;-90
2022/06/09 06:56:09;;;;;;;1.73;1.00;;;17.90;91.40;;;18.50;56.20;98420.13;4860178;28;122735;-92
2022/06/09 06:59:14;;;;;;;1.73;1.00;;;18.00;91.20;;;18.58;56.01;98434.25;4859486;28;123766;-91
2022/06/09 07:01:40;;;;;;;2.60;1.20;;;18.00;90.90;;;18.59;55.86;98421.88;4853018;28;118881;-91
2022/06/09 07:04:07;;;;;;;5.43;1.73;;;18.10;90.90;;;18.63;55.53;98431.94;4859216;28;117005;-88
2022/06/09 07:06:34;;;;;;;2.40;1.10;;;18.10;90.60;;;18.70;55.05;98448.06;4851402;28;124324;-91
2022/06/09 07:09:03;;;;;;;2.03;1.40;;;18.10;90.30;;;18.72;54.48;98445.66;4853806;29;123873;-92
2022/06/09 07:11:30;;;;;;;2.73;1.30;;;18.20;90.10;;;18.73;54.48;98436.91;4847723;28;119666;-91
2022/06/09 07:13:57;;;;;;;4.90;1.40;;;18.20;90.00;;;18.76;54.07;98438.97;4853164;29;118313;-92
2022/06/09 07:16:23;;;;;;;3.80;1.30;;;18.30;89.90;;;18.77;54.13;98445.38;4854761;28;123266;-93
2022/06/09 07:18:50;;;;;;;2.87;1.33;;;18.30;89.50;;;18.70;53.73;98450.84;4847710;28;123489;-90
2022/06/09 07:21:17;;;;;;;4.97;1.73;;;18.20;88.70;;;18.70;53.39;98450.84;4841814;28;118988;-91
2022/06/09 07:23:45;;;;;;;3.57;1.30;;;18.20;88.60;;;18.76;53.30;98455.78;4858924;28;118960;-92
2022/06/09 07:26:31;;;;;;;3.50;1.40;;;18.30;88.60;;;18.81;52.84;98451.84;4853315;28;124683;-93
2022/06/09 07:28:58;;;;;;;3.33;1.67;;;18.30;87.70;;;18.85;52.26;98455.50;4862158;28;123459;-92
2022/06/09 07:31:26;;;;;;;3.00;1.60;;;18.30;87.00;;;18.89;52.07;98463.97;4852339;28;120604;-93
2022/06/09 07:33:54;;;;;;;3.50;1.33;;;18.50;86.80;;;18.91;51.71;98454.03;4839917;29;119024;-92
2022/06/09 07:36:24;;;;;;;4.67;1.40;;;18.40;86.40;;;18.93;51.79;98462.03;4850186;29;122981;-92
2022/06/09 07:38:51;;;;;;;3.40;1.30;;;18.40;86.20;;;18.94;51.04;98458.88;4862060;28;124118;-91
2022/06/09 07:41:20;;;;;;;3.67;1.40;;;18.40;85.30;;;19.01;51.28;98462.94;4841749;29;120488;-91
2022/06/09 07:43:49;;;;;;;2.63;1.50;;;18.50;85.60;;;19.07;51.25;98465.03;4829741;29;118854;-94
2022/06/09 07:46:19;;;;;;;4.87;1.57;;;18.50;85.70;;;19.10;50.78;98478.31;4834489;29;123907;-93
2022/06/09 07:48:47;;;;;;;2.77;1.40;;;18.60;84.90;;;19.11;50.71;98467.91;4837611;29;123052;-92
2022/06/09 07:51:13;;;;;;;3.13;1.53;;;18.60;84.40;;;19.12;50.57;98480.72;4837459;29;119912;-92
2022/06/09 07:53:40;;;;;;;2.20;1.17;;;18.60;84.30;;;19.17;50.44;98478.38;4833197;29;118830;-92
2022/06/09 07:56:06;;;;;;;3.67;1.27;;;18.70;84.40;;;19.25;50.08;98468.09;4816323;29;125202;-91
2022/06/09 07:58:34;;;;;;;3.10;1.40;;;18.70;84.10;;;19.29;50.02;98468.97;4830967;29;123686;-92
2022/06/09 08:01:01;;;;;;;2.13;1.20;;;18.80;83.80;;;19.32;49.79;98468.22;4816746;29;119219;-93
2022/06/09 08:03:27;;;;;;;2.30;1.43;;;18.80;83.50;;;19.34;49.87;98470.63;4831950;29;118356;-91
2022/06/09 08:05:56;;;;;;;3.20;1.57;;;18.80;83.60;;;19.40;49.94;98472.72;4833414;29;124142;-92
2022/06/09 08:08:22;;;;;;;3.10;1.27;;;18.90;83.50;;;19.43;50.03;98468.34;4812032;29;124032;-92
2022/06/09 08:10:49;;;;;;;2.60;1.33;;;18.90;83.40;;;19.47;49.80;98468.41;4802919;29;118422;-91
2022/06/09 08:13:17;;;;;;;1.83;1.13;;;18.90;83.40;;;19.50;49.39;98474.03;4829809;29;120616;-91
2022/06/09 08:15:45;;;;;;;4.07;1.40;;;19.00;83.20;;;19.52;49.49;98482.06;4829961;29;123318;-90
2022/06/09 08:18:13;;;;;;;3.20;1.30;;;19.00;83.00;;;19.54;49.13;98485.31;4831754;29;123258;-91
2022/06/09 08:20:43;;;;;;;3.43;1.50;;;19.00;82.80;;;19.54;48.86;98488.91;4855347;28;120257;-91
2022/06/09 08:23:19;;;;;;;3.13;1.30;;;19.10;82.20;;;19.53;48.76;98483.69;4849495;28;120366;-93
2022/06/09 08:25:49;;;;;;;2.70;1.33;;;19.00;81.60;;;19.48;48.61;98481.19;4849578;28;124542;-90
2022/06/09 08:29:12;;;;;;;3.97;1.40;;;19.00;81.50;;;19.50;48.73;98484.44;4850735;29;123655;-91
2022/06/09 08:31:43;;;;;;;4.23;1.33;;;19.00;81.60;;;19.57;48.44;98496.56;4831995;29;97464;-83
2022/06/09 08:34:11;;;;;;;7.40;1.40;;;19.10;81.30;;;19.61;48.42;98491.81;4873560;28;119570;-92
2022/06/09 08:36:38;;;;;;;5.50;1.47;;;19.10;81.40;;;19.68;48.20;98487.50;4848764;29;123390;-91
2022/06/09 08:39:06;;;;;;;2.53;1.10;;;19.20;81.30;;;19.72;48.68;98497.59;4847487;28;123960;-89
2022/06/09 08:41:54;;;;;;;2.50;1.30;;;19.20;81.20;;;19.73;48.22;98498.41;4847890;29;119527;-92
2022/06/09 08:44:53;;;;;;;3.10;1.20;;;19.20;81.00;;;19.71;48.06;98500.78;4861923;28;118462;-92
2022/06/09 08:47:46;;;;;;;3.30;1.40;;;19.20;80.70;;;19.71;48.00;98498.75;4869921;28;123634;-91
2022/06/09 08:50:33;;;;;;;4.43;1.60;;;19.30;80.70;;;19.71;48.29;98507.19;4848579;28;123969;-92
2022/06/09 08:53:20;;;;;;;3.90;1.47;;;19.20;80.70;;;19.74;47.82;98509.22;4849987;28;118376;-91
2022/06/09 08:56:28;;;;;;;4.57;1.50;;;19.30;80.50;;;19.77;47.84;98507.66;4858236;28;118455;-92
2022/06/09 08:59:12;;;;;;;4.10;1.37;;;19.30;80.20;;;19.77;47.57;98514.09;4840071;28;123892;-89
2022/06/09 09:01:41;;;;;;;3.83;1.80;;;19.30;79.80;;;19.75;47.25;98527.66;4847750;28;123895;-93
2022/06/09 09:04:26;;;;;;;3.07;1.50;;;19.30;79.30;;;19.76;47.09;98522.88;4840734;28;118947;-93
2022/06/09 09:07:27;;;;;;;3.60;1.50;;;19.30;79.00;;;19.76;47.17;98536.88;4843657;29;118554;-94
2022/06/09 09:10:03;;;;;;;6.50;1.87;;;19.30;79.00;;;19.77;46.54;98530.91;4856484;28;124326;-91
2022/06/09 09:12:45;;;;;;;2.30;1.13;;;19.30;78.40;;;19.80;46.30;98527.34;4840301;28;122828;-87
2022/06/09 09:15:52;;;;;;;3.43;1.97;;;19.30;78.10;;;19.82;46.29;98526.94;4852030;28;120465;-92
2022/06/09 09:19:13;;;;;;;2.83;1.33;;;19.30;77.90;;;19.79;46.52;98530.50;4846564;28;120251;-92
2022/06/09 09:22:10;;;;;;;1.87;1.20;;;19.40;77.70;;;19.74;46.54;98512.00;4835308;28;124524;-91
2022/06/09 09:25:13;;;;;;;2.67;1.30;;;19.40;77.70;;;19.69;46.83;98517.94;4850516;28;122941;-92
2022/06/09 09:28:18;;;;;;;4.70;1.30;;;19.30;77.80;;;19.74;46.61;98531.63;4851863;28;119230;-92
2022/06/09 09:30:53;;;;;;;3.07;1.10;;;19.30;77.80;;;19.76;46.58;98520.84;4851478;28;119169;-91
2022/06/09 09:33:39;;;;;;;2.47;1.20;;;19.30;77.80;;;19.79;46.52;98525.69;4835951;28;122784;-90
2022/06/09 09:36:21;;;;;;;4.87;1.30;;;19.40;77.70;;;19.86;46.41;98517.38;4837595;28;124202;-92
2022/06/09 09:39:24;;;;;;;3.23;1.47;;;19.40;77.80;;;19.92;46.92;98522.66;4852258;28;119244;-91
2022/06/09 09:42:09;;;;;;;3.73;1.30;;;19.50;77.90;;;19.97;46.77;98530.75;4847710;28;118187;-90
2022/06/09 09:44:36;;;;;;;2.80;1.30;;;19.50;78.10;;;20.03;46.94;98532.81;4836041;29;123178;-92
2022/06/09 09:47:03;;;;;;;4.67;1.87;;;19.60;78.50;;;20.08;47.07;98526.88;4833636;29;124252;-92
2022/06/09 09:49:40;;;;;;;2.03;1.10;;;19.60;78.60;;;20.16;46.95;98530.56;4835775;28;119778;-93
2022/06/09 09:52:43;;;;;;;5.20;1.87;;;19.70;78.70;;;20.23;46.71;98529.81;4849822;28;118265;-93
2022/06/09 09:55:41;;;;;;;3.27;1.87;;;19.70;78.20;;;20.25;46.80;98522.63;4857455;28;124213;-94
2022/06/09 09:58:23;;;;;;;3.87;1.90;;;19.80;78.30;;;20.29;46.01;98520.69;4848155;28;123955;-92
2022/06/09 10:10:25;;;;;;;3.23;1.30;;;20.00;76.00;;;20.48;45.57;98542.13;4854316;28;124848;-94
2022/06/09 10:12:55;;;;;;;3.77;1.40;;;20.00;76.10;;;20.53;45.06;98535.38;4836635;29;119283;-92
2022/06/09 10:15:26;;;;;;;3.43;1.57;;;20.00;76.10;;;20.56;45.22;98528.22;4834274;28;120096;-92
2022/06/09 10:18:13;;;;;;;3.13;1.50;;;20.00;75.80;;;20.58;45.16;98551.06;4833224;29;124252;-93
2022/06/09 10:20:43;;;;;;;4.10;1.43;;;20.10;76.10;;;20.62;44.90;98527.47;4806169;29;123238;-90
2022/06/09 10:23:09;;;;;;;1.83;1.00;;;20.20;75.80;;;20.66;45.17;98533.09;4834353;29;119493;-91
2022/06/09 10:25:39;;;;;;;1.80;1.20;;;20.20;75.90;;;20.72;45.21;98543.59;4852812;28;117930;-91
2022/06/09 10:28:54;;;;;;;2.70;1.10;;;20.20;75.70;;;20.73;44.34;98528.38;4854264;28;123298;-90
2022/06/09 10:31:32;;;;;;;2.13;1.10;;;20.30;75.00;;;20.68;44.30;98537.13;4813193;28;123576;-90
2022/06/09 10:34:55;;;;;;;4.77;1.10;;;20.20;74.30;;;20.67;44.54;98537.53;4851570;28;117704;-91
2022/06/09 10:37:49;;;;;;;3.93;1.10;;;20.30;74.30;;;20.74;44.34;98532.00;4852948;28;119154;-91
2022/06/09 10:40:41;;;;;;;3.63;1.50;;;20.30;74.80;;;20.86;44.59;98530.91;4856027;28;123207;-90
2022/06/09 10:43:49;;;;;;;5.00;1.47;;;20.30;75.10;;;20.91;44.83;98534.16;4847361;28;124011;-92
2022/06/09 10:46:25;;;;;;;6.03;1.70;;;20.40;75.00;;;20.98;44.63;98541.81;4843140;28;120104;-92
2022/06/09 10:55:24;;;;;;;6.03;1.20;;;20.50;73.90;;;20.96;42.95;98547.03;4850850;28;123887;-92
2022/06/09 10:58:15;;;;;;;1.20;1.00;;;20.50;72.30;;;21.01;42.67;98541.06;4863682;29;118473;-92
2022/06/09 11:00:48;;;;;;;2.73;1.23;;;20.60;72.00;;;21.04;42.74;98537.47;4838099;29;118504;-93
2022/06/09 11:03:29;;;;;;;2.70;1.07;;;20.60;71.70;;;21.07;43.04;98544.31;4831874;29;123875;-92
2022/06/09 11:06:32;;;;;;;2.10;1.07;;;20.60;72.20;;;21.13;43.55;98565.22;4833804;29;122818;-92
2022/06/09 11:10:01;;;;;;;1.80;1.10;;;18.80;71.20;;;21.14;42.32;98559.22;4851448;28;120279;-93
2022/06/09 11:13:01;;;;;;;4.67;1.47;;;20.70;71.60;;;21.11;42.09;98562.78;4823635;28;120815;-92
2022/06/09 11:15:45;;;;;;;1.90;1.20;;;20.70;70.60;;;21.05;41.79;98555.13;4816902;28;124040;-89
2022/06/09 11:18:57;;;;;;;1.97;1.17;;;20.70;70.00;;;20.98;41.87;98555.84;4855715;28;124175;-92
2022/06/09 11:21:48;;;;;;;3.50;1.30;;;20.60;69.80;;;20.96;42.01;98547.84;4821237;28;119375;-92
2022/06/09 11:24:43;;;;;;;4.93;1.40;;;20.60;70.10;;;21.02;42.34;98553.09;4834196;29;118942;-91
2022/06/09 11:27:27;;;;;;;3.90;1.43;;;20.60;71.60;;;21.11;43.25;98548.75;4855793;28;124311;-91
2022/06/09 11:30:18;;;;;;;3.43;1.40;;;20.70;72.60;;;21.25;43.18;98544.44;4854881;28;122083;-92
2022/06/09 11:33:25;;;;;;;2.73;1.17;;;20.70;72.40;;;21.36;43.37;98548.16;4848757;28;119347;-92
2022/06/09 11:36:19;;;;;;;3.10;1.30;;;20.80;72.50;;;21.49;43.27;98555.06;4833457;29;118804;-92
2022/06/09 11:39:27;;;;;;;3.63;1.40;;;21.00;72.50;;;21.52;42.50;98565.56;4829467;29;124110;-93
2022/06/09 11:41:57;;;;;;;8.73;1.50;;;21.00;71.90;;;21.57;42.55;98569.97;4846761;28;123745;-91
2022/06/09 11:44:35;;;;;;;1.70;1.37;;;21.10;71.50;;;21.55;42.13;98567.56;4831950;29;119991;-91
2022/06/09 11:47:16;;;;;;;2.60;1.20;;;21.10;71.10;;;21.47;42.17;98562.31;4830965;29;117807;-92
2022/06/09 11:49:48;;;;;;;2.47;1.30;;;21.10;70.90;;;21.39;42.86;98565.06;4838591;28;123770;-91
2022/06/09 11:52:47;;;;;;;5.33;1.47;;;21.00;71.20;;;21.34;42.58;98575.81;4833873;29;124783;-92
2022/06/09 11:58:37;;;;;;;5.07;1.63;;;21.00;71.30;;;21.37;43.07;98563.81;4854932;28;119350;-93
2022/06/09 12:01:18;;;;;;;2.50;1.50;;;21.00;71.60;;;21.47;42.84;98551.88;4846548;28;123253;-92
2022/06/09 12:08:05;;;;;;;3.50;1.60;;;21.10;71.70;;;21.68;42.27;98558.78;4861148;28;120507;-92
2022/06/09 12:10:54;;;;;;;2.63;1.17;;;21.20;70.90;;;21.75;41.82;98581.34;4875417;28;117742;-92
2022/06/09 12:13:23;;;;;;;2.67;1.10;;;21.20;70.40;;;21.83;41.17;98585.81;4855856;28;124878;-88
2022/06/09 12:15:59;;;;;;;3.20;1.30;;;21.30;69.40;;;21.87;41.02;98588.63;4837825;29;123200;-91
2022/06/09 12:18:39;;;;;;;4.20;1.43;;;21.40;69.10;;;21.87;40.65;98560.50;4840173;28;119414;-92
2022/06/09 12:21:14;;;;;;;2.90;1.10;;;21.40;68.60;;;21.91;40.95;98567.78;4848130;28;118854;-92
2022/06/09 12:24:21;;;;;;;3.20;1.53;;;21.40;68.90;;;21.98;41.13;98583.91;4832442;29;123440;-93
2022/06/09 12:27:21;;;;;;;1.60;1.10;;;21.50;69.20;;;22.06;40.68;98586.34;4853021;28;123896;-91
2022/06/09 12:29:58;;;;;;;2.47;1.10;;;21.60;68.60;;;22.10;40.23;98583.53;4853574;28;118679;-91
2022/06/09 12:33:11;;;;;;;1.77;1.00;;;21.60;67.20;;;22.13;39.84;98584.75;4848732;28;119032;-92
2022/06/09 12:36:26;;;;;;;1.93;1.07;;;21.70;66.70;;;22.21;40.00;98580.78;4852864;28;123244;-92
2022/06/09 12:38:57;;;;;;;2.50;1.27;;;21.70;67.00;;;22.36;39.43;98584.47;4837015;29;123968;-92
2022/06/09 12:41:34;;;;;;;2.90;1.20;;;21.80;66.70;;;22.40;39.36;98569.19;4836123;29;119320;-92
2022/06/09 12:44:23;;;;;;;2.73;1.17;;;21.90;66.60;;;22.44;39.09;98578.47;4838632;29;119619;-92
2022/06/09 12:47:22;;;;;;;3.63;1.10;;;22.00;65.50;;;22.48;38.08;98586.91;4856194;28;124004;-91
2022/06/09 12:49:54;;;;;;;3.43;1.20;;;22.00;63.80;;;22.49;37.59;98578.09;4803469;29;122857;-91
2022/06/09 12:52:27;;;;;;;1.93;0.90;;;22.00;62.60;;;22.56;37.59;98590.56;4802465;29;118056;-91
2022/06/09 12:55:03;;;;;;;4.20;1.37;;;22.10;62.60;;;22.62;37.54;98588.97;4819282;29;119903;-92
2022/06/09 12:57:35;;;;;;;1.43;1.10;;;22.10;62.70;;;22.65;37.82;98586.19;4806424;29;124582;-94
2022/06/09 13:00:06;;;;;;;3.00;2.07;;;22.20;63.00;;;22.78;37.95;98588.59;4824442;29;123260;-91
2022/06/09 13:02:39;;;;;;;3.47;1.03;;;22.20;63.20;;;22.90;37.60;98591.03;4815583;29;120432;-91
2022/06/09 13:05:24;;;;;;;2.20;0.97;;;22.30;62.80;;;23.05;37.69;98572.16;4817416;29;119016;-94
2022/06/09 13:08:03;;;;;;;2.87;1.30;;;22.50;62.90;;;23.19;37.45;98602.38;4822344;29;123918;-91
2022/06/09 13:10:35;;;;;;;3.13;1.20;;;22.60;63.10;;;23.18;36.97;98595.13;4815029;29;123052;-92
2022/06/09 13:13:26;;;;;;;2.63;1.17;;;22.60;62.30;;;23.15;37.05;98608.00;4802940;29;118171;-91
2022/06/09 13:16:07;;;;;;;3.10;1.37;;;22.70;62.30;;;23.11;37.69;98612.84;4811123;29;119084;-93
2022/06/09 13:18:36;;;;;;;4.50;1.23;;;22.70;62.30;;;23.10;37.59;98608.41;4811099;29;124074;-91
2022/06/09 13:21:18;;;;;;;4.50;1.40;;;22.70;62.50;;;23.15;37.42;98605.19;4830647;28;123402;-94
2022/06/09 13:23:51;;;;;;;1.73;1.07;;;22.70;62.00;;;23.26;37.21;98605.19;4847726;28;119496;-91
2022/06/09 13:26:28;;;;;;;8.33;1.30;;;22.70;61.90;;;23.38;36.74;98599.94;4830234;29;119041;-91
2022/06/09 13:29:00;;;;;;;2.93;1.37;;;22.80;61.50;;;23.49;36.52;98610.44;4847822;28;123867;-93
2022/06/09 13:31:41;;;;;;;2.73;1.40;;;22.90;61.20;;;23.52;36.17;98618.06;4850018;28;123848;-89
2022/06/09 13:34:13;;;;;;;2.10;1.00;;;23.00;60.40;;;23.53;36.62;98619.66;4847969;28;119542;-91
2022/06/09 13:37:14;;;;;;;3.73;1.30;;;23.00;60.60;;;23.55;36.55;98625.72;4848081;28;119696;-91
2022/06/09 13:40:10;;;;;;;2.33;1.23;;;23.10;60.70;;;23.57;36.14;98620.50;4835222;28;124153;-92
2022/06/09 13:42:55;;;;;;;1.73;1.03;;;23.10;60.10;;;23.64;35.86;98626.09;4834647;28;124712;-91
2022/06/09 13:45:32;;;;;;;3.73;1.40;;;23.10;58.80;;;23.75;35.34;98626.13;4858002;28;118493;-92
2022/06/09 13:48:22;;;;;;;3.20;1.10;;;23.20;58.90;;;23.91;34.80;98639.81;4858248;28;118858;-91
2022/06/09 13:51:26;;;;;;;2.87;1.07;;;23.30;58.20;;;23.95;34.48;98635.78;4858096;28;124295;-94
2022/06/09 13:54:37;;;;;;;3.93;1.33;;;23.30;57.20;;;23.92;34.55;98655.53;4848607;28;124063;-91
2022/06/09 13:57:16;;;;;;;3.90;1.20;;;23.40;57.20;;;23.78;34.11;98640.25;4854572;28;119979;-91
2022/06/09 13:59:43;;;;;;;2.27;1.10;;;23.40;56.10;;;23.72;34.90;98641.03;4856768;28;119243;-92
2022/06/09 14:02:17;;;;;;;1.73;1.27;;;23.30;57.10;;;23.76;35.24;98642.66;4852583;28;123960;-91
2022/06/09 14:04:44;;;;;;;2.90;1.33;;;23.30;57.60;;;23.77;35.03;98658.38;4834950;29;123282;-92
2022/06/09 14:07:24;;;;;;;4.73;1.10;;;23.30;57.40;;;23.75;33.50;98672.09;4856008;28;119258;-91
2022/06/09 14:09:53;;;;;;;2.30;1.33;;;23.30;55.30;;;23.69;33.36;98656.72;4852148;28;118790;-92
2022/06/09 14:12:19;;;;;;;2.90;1.33;;;23.20;54.80;;;23.63;33.66;98658.34;4851590;28;124302;-91
2022/06/09 14:14:46;;;;;;;3.67;1.43;;;23.20;54.70;;;23.62;33.33;98655.94;4846423;28;123949;-91